Flight Track Log - Related Links

Times and Time Zones

All times are in EDT time to prevent confusion due to time zone crossing. See the CHH7103 flight status page for this flight to view local times or setup timezone preferences in your user account.

Time Position Orientation Groundspeed Altitude Reporting Facility
EDT Latitude Longitude Course Direction KTS MPH feet Rate Location/Type
Sat 10:37:00 PM 40.1315 116.7053 61° Northeast  Level Estimated
Sat 10:38:00 PM 40.1827 116.8263 61° Northeast  Level Estimated
Sat 10:39:00 PM 40.2338 116.9474 61° Northeast  Level Estimated
Sat 10:40:00 PM 40.2848 117.0687 61° Northeast  Level Estimated
Sat 10:41:00 PM 40.3357 117.1902 61° Northeast  Level Estimated
Sat 10:42:00 PM 40.3864 117.3119 61° Northeast  Level Estimated
Sat 10:43:00 PM 40.4370 117.4337 61° Northeast  Level Estimated
Sat 10:44:00 PM 40.4875 117.5558 61° Northeast  Level Estimated
Sat 10:45:00 PM 40.5378 117.6780 62° Northeast  Level Estimated
Sat 10:46:00 PM 40.5880 117.8004 62° Northeast  Level Estimated
Sat 10:47:00 PM 40.6381 117.9230 62° Northeast  Level Estimated
Sat 10:48:00 PM 40.6881 118.0458 62° Northeast  Level Estimated
Sat 10:49:00 PM 40.7379 118.1687 62° Northeast  Level Estimated
Sat 10:50:00 PM 40.7876 118.2919 62° Northeast  Level Estimated
Sat 10:51:00 PM 40.8372 118.4152 62° Northeast  Level Estimated
Sat 10:52:00 PM 40.8866 118.5387 62° Northeast  Level Estimated
Sat 10:53:00 PM 40.9359 118.6624 62° Northeast  Level Estimated
Sat 10:54:00 PM 40.9851 118.7863 62° Northeast  Level Estimated
Sat 10:55:00 PM 41.0341 118.9104 62° Northeast  Level Estimated
Sat 10:56:00 PM 41.0830 119.0346 62° Northeast  Level Estimated
Sat 10:57:00 PM 41.1318 119.1591 62° Northeast  Level Estimated
Sat 10:58:00 PM 41.1804 119.2837 63° Northeast  Level Estimated
Sat 10:59:00 PM 41.2289 119.4085 63° Northeast  Level Estimated
Sat 11:00:00 PM 41.2773 119.5335 63° Northeast  Level Estimated
Sat 11:01:00 PM 41.3255 119.6587 63° Northeast  Level Estimated
Sat 11:02:00 PM 41.3736 119.7840 63° Northeast  Level Estimated
Sat 11:03:00 PM 41.4216 119.9096 63° Northeast  Level Estimated
Sat 11:04:00 PM 41.4694 120.0353 63° Northeast  Level Estimated
Sat 11:05:00 PM 41.5171 120.1612 63° Northeast  Level Estimated
Sat 11:06:00 PM 41.5646 120.2873 63° Northeast  Level Estimated
Sat 11:07:00 PM 41.6120 120.4136 63° Northeast  Level Estimated
Sat 11:08:00 PM 41.6593 120.5401 63° Northeast  Level Estimated
Sat 11:09:00 PM 41.7064 120.6667 63° Northeast  Level Estimated
Sat 11:10:00 PM 41.7534 120.7936 64° Northeast  Level Estimated
Sat 11:11:00 PM 41.8003 120.9206 64° Northeast  Level Estimated
Sat 11:12:00 PM 41.8470 121.0478 64° Northeast  Level Estimated
Sat 11:13:00 PM 41.8936 121.1752 64° Northeast  Level Estimated
Sat 11:14:00 PM 41.9400 121.3028 64° Northeast  Level Estimated
Sat 11:15:00 PM 41.9863 121.4306 64° Northeast  Level Estimated
Sat 11:16:00 PM 42.0324 121.5585 64° Northeast  Level Estimated
Sat 11:17:00 PM 42.0784 121.6867 64° Northeast  Level Estimated
Sat 11:18:00 PM 42.1243 121.8150 64° Northeast  Level Estimated
Sat 11:19:00 PM 42.1700 121.9435 64° Northeast  Level Estimated
Sat 11:20:00 PM 42.2156 122.0722 64° Northeast  Level Estimated
Sat 11:21:00 PM 42.2610 122.2011 64° Northeast  Level Estimated
Sat 11:22:00 PM 42.3063 122.3302 65° Northeast  Level Estimated
Sat 11:23:00 PM 42.3515 122.4595 65° Northeast  Level Estimated
Sat 11:24:00 PM 42.3965 122.5889 65° Northeast  Level Estimated
Sat 11:25:00 PM 42.4413 122.7185 65° Northeast  Level Estimated
Sat 11:26:00 PM 42.4860 122.8483 65° Northeast  Level Estimated
Sat 11:27:00 PM 42.5306 122.9783 65° Northeast  Level Estimated
Sat 11:28:00 PM 42.5750 123.1085 65° Northeast  Level Estimated
Sat 11:29:00 PM 42.6193 123.2389 65° Northeast  Level Estimated
Sat 11:30:00 PM 42.6634 123.3695 65° Northeast  Level Estimated
Sat 11:31:00 PM 42.7073 123.5002 65° Northeast  Level Estimated
Sat 11:32:00 PM 42.7512 123.6311 65° Northeast  Level Estimated
Sat 11:33:00 PM 42.7948 123.7622 66° East  Level Estimated
Sat 11:34:00 PM 42.8383 123.8935 66° East  Level Estimated
Sat 11:35:00 PM 42.8817 124.0250 66° East  Level Estimated
Sat 11:36:00 PM 42.9249 124.1567 66° East  Level Estimated
Sat 11:37:00 PM 42.9680 124.2885 66° East  Level Estimated
Sat 11:38:00 PM 43.0109 124.4206 66° East  Level Estimated
Sat 11:39:00 PM 43.0537 124.5528 66° East  Level Estimated
Sat 11:40:00 PM 43.0963 124.6852 66° East  Level Estimated
Sat 11:41:00 PM 43.1388 124.8178 66° East  Level Estimated
Sat 11:42:00 PM 43.1811 124.9505 66° East  Level Estimated
Sat 11:43:00 PM 43.2232 125.0835 66° East  Level Estimated
Sat 11:44:00 PM 43.2652 125.2166 67° East  Level Estimated
Sat 11:45:00 PM 43.3070 125.3500 67° East  Level Estimated
Sat 11:46:00 PM 43.3487 125.4835 67° East  Level Estimated
Sat 11:47:00 PM 43.3903 125.6171 67° East  Level Estimated
Sat 11:48:00 PM 43.4316 125.7510 67° East  Level Estimated
Sat 11:49:00 PM 43.4729 125.8851 67° East  Level Estimated
Sat 11:50:00 PM 43.5139 126.0193 67° East  Level Estimated
Sat 11:51:00 PM 43.5548 126.1537 67° East  Level Estimated
Sat 11:52:00 PM 43.5956 126.2883 67° East  Level Estimated
Sat 11:53:00 PM 43.6362 126.4231 67° East  Level Estimated
Sat 11:54:00 PM 43.6766 126.5581 67° East  Level Estimated
Sat 11:55:00 PM 43.7169 126.6932 68° East  Level Estimated
Sat 11:56:00 PM 43.7570 126.8286 68° East  Level Estimated
Sat 11:57:00 PM 43.7999 126.9743 68° East  Level Estimated
Sat 11:58:00 PM 43.8427 127.1202 68° East  Level Estimated
Sat 11:59:00 PM 43.8853 127.2663 68° East  Level Estimated
Sun 12:00:00 AM 43.9277 127.4127 68° East  Level Estimated
Sun 12:01:00 AM 43.9699 127.5592 68° East  Level Estimated
Sun 12:02:00 AM 44.0119 127.7060 68° East  Level Estimated
Sun 12:03:00 AM 44.0537 127.8530 68° East  Level Estimated
Sun 12:04:00 AM 44.0954 128.0001 68° East  Level Estimated
Sun 12:05:00 AM 44.1368 128.1475 69° East  Level Estimated
Sun 12:06:00 AM 44.1781 128.2951 69° East  Level Estimated
Sun 12:07:00 AM 44.2192 128.4429 69° East  Level Estimated
Sun 12:08:00 AM 44.2601 128.5909 69° East  Level Estimated
Sun 12:09:00 AM 44.3008 128.7391 69° East  Level Estimated
Sun 12:10:00 AM 44.3413 128.8875 69° East  Level Estimated
Sun 12:11:00 AM 44.3816 129.0361 69° East  Level Estimated
Sun 12:12:00 AM 44.4217 129.1849 69° East  Level Estimated
Sun 12:13:00 AM 44.4616 129.3339 69° East  Level Estimated
Sun 12:14:00 AM 44.5013 129.4832 69° East  Level Estimated
Sun 12:15:00 AM 44.5241 129.5690 70° East  Level Estimated
Sun 12:16:00 AM 44.5241 129.5690 35° Northeast  Level Estimated
Sun 12:17:00 AM 44.5241 129.5690 35° Northeast  Level Estimated
Sun 12:18:00 AM 44.5241 129.5690 35° Northeast  Level Estimated
Sun 12:19:00 AM 44.5241 129.5690 35° Northeast  Level Estimated
Sun 12:20:00 AM 44.5241 129.5690 35° Northeast  Level Estimated
Sun 12:21:00 AM 44.5241 129.5690 35° Northeast  Level Estimated
Sun 12:22:00 AM 44.5241 129.5690 35° Northeast  Level Estimated
Sun 12:23:00 AM 44.5241 129.5690 35° Northeast  Level Estimated
Sun 12:24:00 AM 44.5241 129.5690 35° Northeast  Level Estimated
Sun 12:25:00 AM 44.5241 129.5690 35° Northeast  Level Estimated
Sun 12:26:00 AM 44.5241 129.5690 35° Northeast  Level Estimated
Sun 12:27:00 AM 44.5241 129.5690 35° Northeast  Level Estimated
Sun 12:28:00 AM 44.5241 129.5690 35° Northeast  Level Estimated
Sun 12:29:00 AM 44.5241 129.5690 35° Northeast  Level Estimated
Sun 12:30:00 AM 44.5241 129.5690 35° Northeast  Level Estimated
Sun 12:31:00 AM 44.5241 129.5690 35° Northeast  Level Estimated
Sun 12:32:00 AM 44.5241 129.5690 35° Northeast  Level Estimated
Sun 12:33:00 AM 44.5241 129.5690 35° Northeast  Level Estimated
Sun 12:34:00 AM 44.5241 129.5690 35° Northeast  Level Estimated
Sun 12:35:00 AM 44.5241 129.5690 35° Northeast  Level Estimated
Sun 12:36:00 AM 44.5241 129.5690 35° Northeast  Level Estimated
Sun 12:37:00 AM 44.5241 129.5690 35° Northeast  Level Estimated
Sun 12:38:00 AM 44.5241 129.5690 35° Northeast  Level Estimated
Sun 12:39:00 AM 44.5241 129.5690 35° Northeast  Level Estimated
Sun 12:40:00 AM 44.5241 129.5690 35° Northeast  Level Estimated
Sun 12:41:00 AM 44.5241 129.5690 35° Northeast  Level Estimated
Sun 12:42:00 AM 44.5241 129.5690 35° Northeast  Level Estimated
Sun 12:43:00 AM 44.5241 129.5690 35° Northeast  Level Estimated
Sun 12:44:00 AM 44.5241 129.5690 35° Northeast  Level Estimated
Sun 12:45:00 AM 44.5241 129.5690 35° Northeast  Level Estimated
Sun 12:46:00 AM 44.5241 129.5690 35° Northeast  Level Estimated
Sun 12:47:00 AM 44.5241 129.5690 35° Northeast  Level Estimated
Sun 12:48:00 AM 44.5241 129.5690 35° Northeast  Level Estimated
Sun 12:49:00 AM 44.5241 129.5690 35° Northeast  Level Estimated
Sun 12:50:00 AM 44.5241 129.5690 35° Northeast  Level Estimated
Sun 12:51:00 AM 44.5241 129.5690 35° Northeast  Level Estimated
Sun 12:52:00 AM 44.5241 129.5690 35° Northeast  Level Estimated
Sun 12:53:00 AM 44.5241 129.5690 35° Northeast  Level Estimated
Sun 12:54:00 AM 44.5241 129.5690 35° Northeast  Level Estimated
Sun 12:55:00 AM 44.5241 129.5690 35° Northeast  Level Estimated
Sun 12:56:00 AM 44.5241 129.5690 35° Northeast  Level Estimated
Sun 12:57:00 AM 44.5241 129.5690 35° Northeast  Level Estimated
Sun 12:58:00 AM 44.5241 129.5690 35° Northeast  Level Estimated
Sun 12:59:00 AM 44.5241 129.5690 35° Northeast  Level Estimated
Sun 01:00:00 AM 44.5241 129.5690 35° Northeast  Level Estimated
Sun 01:01:00 AM 44.5241 129.5690 35° Northeast  Level Estimated
Sun 01:02:00 AM 44.5241 129.5690 35° Northeast  Level Estimated
Sun 01:03:00 AM 44.5241 129.5690 35° Northeast  Level Estimated
Sun 01:04:00 AM 44.5241 129.5690 35° Northeast  Level Estimated
Sun 01:05:00 AM 44.5241 129.5690 35° Northeast  Level Estimated
Sun 01:06:00 AM 44.5241 129.5690 35° Northeast  Level Estimated
Sun 01:07:00 AM 44.5241 129.5690 35° Northeast  Level Estimated
Sun 01:08:00 AM 44.5241 129.5690 35° Northeast  Level Estimated
Sun 01:09:00 AM 44.5241 129.5690 35° Northeast  Level Estimated
Sun 01:10:00 AM 44.5241 129.5690 35° Northeast  Level Estimated
Sun 01:11:00 AM 44.5241 129.5690 35° Northeast  Level Estimated
Sun 01:12:00 AM 44.5241 129.5690 35° Northeast  Level Estimated
Sun 01:13:00 AM 44.5241 129.5690 35° Northeast  Level Estimated
Sun 01:14:00 AM 44.5241 129.5690 35° Northeast  Level Estimated
Sun 01:15:00 AM 44.5241 129.5690 35° Northeast  Level Estimated
Sun 01:16:00 AM 44.5241 129.5690 35° Northeast  Level Estimated
Sun 01:17:00 AM 44.5241 129.5690 35° Northeast  Level Estimated
Sun 01:18:00 AM 44.5241 129.5690 35° Northeast  Level Estimated
Sun 01:19:00 AM 44.5241 129.5690 35° Northeast  Level Estimated
Sun 01:20:00 AM 44.5241 129.5690 35° Northeast  Level Estimated
Sun 01:21:00 AM 44.5241 129.5690 35° Northeast  Level Estimated
Sun 01:22:00 AM 44.5241 129.5690 35° Northeast  Level Estimated
Sun 01:23:00 AM 44.5241 129.5690 35° Northeast  Level Estimated
Sun 01:24:00 AM 44.5241 129.5690 35° Northeast  Level Estimated

Login

Don't have an account? Register now (free) for customized features, flight alerts, and more!